sensor_id;sensor_type;location;lat;lon;timestamp;temperature;humidity
42755;DHT22;28407;51.830;5.684;2024-03-29T00:01:08;10.20;68.70
42755;DHT22;28407;51.830;5.684;2024-03-29T00:03:12;10.20;68.70
42755;DHT22;28407;51.830;5.684;2024-03-29T00:05:13;10.20;69.40
42755;DHT22;28407;51.830;5.684;2024-03-29T00:07:14;10.20;68.80
42755;DHT22;28407;51.830;5.684;2024-03-29T00:09:14;10.20;68.80
42755;DHT22;28407;51.830;5.684;2024-03-29T00:11:15;10.20;68.80
42755;DHT22;28407;51.830;5.684;2024-03-29T00:13:16;10.20;68.90
42755;DHT22;28407;51.830;5.684;2024-03-29T00:15:17;10.20;68.90
42755;DHT22;28407;51.830;5.684;2024-03-29T00:17:20;10.20;68.90
42755;DHT22;28407;51.830;5.684;2024-03-29T00:19:21;10.20;68.90
42755;DHT22;28407;51.830;5.684;2024-03-29T00:21:22;10.20;69.00
42755;DHT22;28407;51.830;5.684;2024-03-29T00:23:23;10.20;69.00
42755;DHT22;28407;51.830;5.684;2024-03-29T00:25:26;10.20;69.00
42755;DHT22;28407;51.830;5.684;2024-03-29T00:27:28;10.20;69.00
42755;DHT22;28407;51.830;5.684;2024-03-29T00:29:28;10.10;69.00
42755;DHT22;28407;51.830;5.684;2024-03-29T00:31:30;10.10;69.00
42755;DHT22;28407;51.830;5.684;2024-03-29T00:33:31;10.10;69.00
42755;DHT22;28407;51.830;5.684;2024-03-29T00:35:34;10.10;69.00
42755;DHT22;28407;51.830;5.684;2024-03-29T00:37:35;10.10;69.00
42755;DHT22;28407;51.830;5.684;2024-03-29T00:39:36;10.10;69.10
42755;DHT22;28407;51.830;5.684;2024-03-29T00:41:36;10.10;69.10
42755;DHT22;28407;51.830;5.684;2024-03-29T00:43:37;10.10;69.10
42755;DHT22;28407;51.830;5.684;2024-03-29T00:45:38;10.10;69.10
42755;DHT22;28407;51.830;5.684;2024-03-29T00:47:39;10.10;69.20
42755;DHT22;28407;51.830;5.684;2024-03-29T00:49:39;10.10;69.80
42755;DHT22;28407;51.830;5.684;2024-03-29T00:51:40;10.10;69.20
42755;DHT22;28407;51.830;5.684;2024-03-29T00:53:41;10.10;69.20
42755;DHT22;28407;51.830;5.684;2024-03-29T00:55:44;10.10;69.20
42755;DHT22;28407;51.830;5.684;2024-03-29T00:57:45;10.10;69.20
42755;DHT22;28407;51.830;5.684;2024-03-29T00:59:46;10.00;69.20
42755;DHT22;28407;51.830;5.684;2024-03-29T01:01:47;10.10;69.20
42755;DHT22;28407;51.830;5.684;2024-03-29T01:03:48;10.10;69.20
42755;DHT22;28407;51.830;5.684;2024-03-29T01:05:48;10.10;69.20
42755;DHT22;28407;51.830;5.684;2024-03-29T01:07:49;10.10;69.30
42755;DHT22;28407;51.830;5.684;2024-03-29T01:09:50;10.00;69.20
42755;DHT22;28407;51.830;5.684;2024-03-29T01:11:51;10.00;69.20
42755;DHT22;28407;51.830;5.684;2024-03-29T01:13:52;10.00;69.30
42755;DHT22;28407;51.830;5.684;2024-03-29T01:15:53;10.00;69.30
42755;DHT22;28407;51.830;5.684;2024-03-29T01:17:54;10.00;69.30
42755;DHT22;28407;51.830;5.684;2024-03-29T01:19:55;10.00;69.30
42755;DHT22;28407;51.830;5.684;2024-03-29T01:21:56;10.00;69.30
42755;DHT22;28407;51.830;5.684;2024-03-29T01:23:56;10.00;69.30
42755;DHT22;28407;51.830;5.684;2024-03-29T01:25:57;10.00;69.30
42755;DHT22;28407;51.830;5.684;2024-03-29T01:27:58;10.00;69.30
42755;DHT22;28407;51.830;5.684;2024-03-29T01:29:59;10.00;69.30
42755;DHT22;28407;51.830;5.684;2024-03-29T01:32:00;9.90;69.20
42755;DHT22;28407;51.830;5.684;2024-03-29T01:34:00;10.00;69.30
42755;DHT22;28407;51.830;5.684;2024-03-29T01:36:06;10.00;69.30
42755;DHT22;28407;51.830;5.684;2024-03-29T01:38:07;9.90;69.30
42755;DHT22;28407;51.830;5.684;2024-03-29T01:40:08;9.90;69.30
42755;DHT22;28407;51.830;5.684;2024-03-29T01:42:10;9.90;69.30
42755;DHT22;28407;51.830;5.684;2024-03-29T01:44:11;9.90;69.30
42755;DHT22;28407;51.830;5.684;2024-03-29T01:46:12;9.90;69.30
42755;DHT22;28407;51.830;5.684;2024-03-29T01:48:13;9.80;69.30
42755;DHT22;28407;51.830;5.684;2024-03-29T01:50:14;9.90;69.40
42755;DHT22;28407;51.830;5.684;2024-03-29T01:52:16;9.90;69.40
42755;DHT22;28407;51.830;5.684;2024-03-29T01:54:18;9.80;69.30
42755;DHT22;28407;51.830;5.684;2024-03-29T01:56:21;9.90;69.40
42755;DHT22;28407;51.830;5.684;2024-03-29T01:58:23;9.90;69.40
42755;DHT22;28407;51.830;5.684;2024-03-29T02:00:25;9.80;69.40
42755;DHT22;28407;51.830;5.684;2024-03-29T02:02:27;9.80;69.50
42755;DHT22;28407;51.830;5.684;2024-03-29T02:04:28;9.80;69.40
42755;DHT22;28407;51.830;5.684;2024-03-29T02:06:28;9.80;69.50
42755;DHT22;28407;51.830;5.684;2024-03-29T02:08:30;9.80;69.50
42755;DHT22;28407;51.830;5.684;2024-03-29T02:10:31;9.80;69.50
42755;DHT22;28407;51.830;5.684;2024-03-29T02:12:31;9.80;69.50
42755;DHT22;28407;51.830;5.684;2024-03-29T02:14:32;9.80;69.50
42755;DHT22;28407;51.830;5.684;2024-03-29T02:16:33;9.80;69.60
42755;DHT22;28407;51.830;5.684;2024-03-29T02:18:34;9.80;69.60
42755;DHT22;28407;51.830;5.684;2024-03-29T02:20:35;9.80;69.60
42755;DHT22;28407;51.830;5.684;2024-03-29T02:22:46;9.80;69.70
42755;DHT22;28407;51.830;5.684;2024-03-29T02:24:48;9.80;69.70
42755;DHT22;28407;51.830;5.684;2024-03-29T02:26:49;9.80;69.70
42755;DHT22;28407;51.830;5.684;2024-03-29T02:28:50;9.80;69.70
42755;DHT22;28407;51.830;5.684;2024-03-29T02:30:51;9.80;69.80
42755;DHT22;28407;51.830;5.684;2024-03-29T02:32:51;9.80;69.80
42755;DHT22;28407;51.830;5.684;2024-03-29T02:34:57;9.80;69.80
42755;DHT22;28407;51.830;5.684;2024-03-29T02:36:58;9.80;69.90
42755;DHT22;28407;51.830;5.684;2024-03-29T02:38:59;9.80;69.90
42755;DHT22;28407;51.830;5.684;2024-03-29T02:41:00;9.80;70.00
42755;DHT22;28407;51.830;5.684;2024-03-29T02:43:01;9.80;70.00
42755;DHT22;28407;51.830;5.684;2024-03-29T02:45:03;9.80;70.00
42755;DHT22;28407;51.830;5.684;2024-03-29T02:47:03;9.80;70.70
42755;DHT22;28407;51.830;5.684;2024-03-29T02:49:08;9.80;70.00
42755;DHT22;28407;51.830;5.684;2024-03-29T02:51:09;9.80;70.00
42755;DHT22;28407;51.830;5.684;2024-03-29T02:53:10;9.80;70.00
42755;DHT22;28407;51.830;5.684;2024-03-29T02:55:11;9.80;70.00
42755;DHT22;28407;51.830;5.684;2024-03-29T02:57:12;9.80;70.00
42755;DHT22;28407;51.830;5.684;2024-03-29T02:59:12;9.80;70.10
42755;DHT22;28407;51.830;5.684;2024-03-29T03:01:13;9.80;70.10
42755;DHT22;28407;51.830;5.684;2024-03-29T03:03:16;9.90;70.10
42755;DHT22;28407;51.830;5.684;2024-03-29T03:05:17;9.90;70.10
42755;DHT22;28407;51.830;5.684;2024-03-29T03:07:18;9.90;70.10
42755;DHT22;28407;51.830;5.684;2024-03-29T03:09:37;9.90;70.10
42755;DHT22;28407;51.830;5.684;2024-03-29T03:11:57;9.90;70.10
42755;DHT22;28407;51.830;5.684;2024-03-29T03:13:59;9.90;70.00
42755;DHT22;28407;51.830;5.684;2024-03-29T03:16:00;9.90;70.00
42755;DHT22;28407;51.830;5.684;2024-03-29T03:18:01;9.90;70.00
42755;DHT22;28407;51.830;5.684;2024-03-29T03:20:01;9.90;70.00
42755;DHT22;28407;51.830;5.684;2024-03-29T03:22:05;9.90;70.10
42755;DHT22;28407;51.830;5.684;2024-03-29T03:24:06;10.00;70.10
42755;DHT22;28407;51.830;5.684;2024-03-29T03:26:07;10.00;70.10
42755;DHT22;28407;51.830;5.684;2024-03-29T03:28:08;10.00;70.10
42755;DHT22;28407;51.830;5.684;2024-03-29T03:30:10;10.00;70.70
42755;DHT22;28407;51.830;5.684;2024-03-29T03:32:11;10.00;70.10
42755;DHT22;28407;51.830;5.684;2024-03-29T03:34:11;10.00;70.10
42755;DHT22;28407;51.830;5.684;2024-03-29T03:36:12;10.00;70.10
42755;DHT22;28407;51.830;5.684;2024-03-29T03:38:14;10.00;70.00
42755;DHT22;28407;51.830;5.684;2024-03-29T03:40:18;10.00;70.00
42755;DHT22;28407;51.830;5.684;2024-03-29T03:42:20;10.10;70.10
42755;DHT22;28407;51.830;5.684;2024-03-29T03:44:20;10.10;70.10
42755;DHT22;28407;51.830;5.684;2024-03-29T03:46:22;10.10;70.20
42755;DHT22;28407;51.830;5.684;2024-03-29T03:48:23;10.10;70.40
42755;DHT22;28407;51.830;5.684;2024-03-29T03:50:24;10.00;70.50
42755;DHT22;28407;51.830;5.684;2024-03-29T03:52:24;10.00;70.70
42755;DHT22;28407;51.830;5.684;2024-03-29T03:54:25;10.00;70.90
42755;DHT22;28407;51.830;5.684;2024-03-29T03:56:26;10.00;71.20
42755;DHT22;28407;51.830;5.684;2024-03-29T03:58:27;10.00;71.40
42755;DHT22;28407;51.830;5.684;2024-03-29T04:00:28;9.90;71.60
42755;DHT22;28407;51.830;5.684;2024-03-29T04:02:32;9.90;71.80
42755;DHT22;28407;51.830;5.684;2024-03-29T04:04:32;9.90;72.00
42755;DHT22;28407;51.830;5.684;2024-03-29T04:06:33;9.90;72.20
42755;DHT22;28407;51.830;5.684;2024-03-29T04:08:34;9.90;72.40
42755;DHT22;28407;51.830;5.684;2024-03-29T04:10:38;9.90;72.60
42755;DHT22;28407;51.830;5.684;2024-03-29T04:12:42;9.80;72.70
42755;DHT22;28407;51.830;5.684;2024-03-29T04:14:45;9.80;72.80
42755;DHT22;28407;51.830;5.684;2024-03-29T04:16:46;9.80;72.90
42755;DHT22;28407;51.830;5.684;2024-03-29T04:18:47;9.80;73.00
42755;DHT22;28407;51.830;5.684;2024-03-29T04:20:56;9.80;73.10
42755;DHT22;28407;51.830;5.684;2024-03-29T04:22:57;9.80;73.30
42755;DHT22;28407;51.830;5.684;2024-03-29T04:24:58;9.80;73.30
42755;DHT22;28407;51.830;5.684;2024-03-29T04:26:58;9.80;73.40
42755;DHT22;28407;51.830;5.684;2024-03-29T04:28:59;9.80;73.40
42755;DHT22;28407;51.830;5.684;2024-03-29T04:31:03;9.80;73.50
42755;DHT22;28407;51.830;5.684;2024-03-29T04:33:08;9.80;73.60
42755;DHT22;28407;51.830;5.684;2024-03-29T04:35:09;9.80;73.80
42755;DHT22;28407;51.830;5.684;2024-03-29T04:37:09;9.80;73.90
42755;DHT22;28407;51.830;5.684;2024-03-29T04:39:10;9.80;73.90
42755;DHT22;28407;51.830;5.684;2024-03-29T04:41:11;9.80;74.00
42755;DHT22;28407;51.830;5.684;2024-03-29T04:43:11;9.80;74.10
42755;DHT22;28407;51.830;5.684;2024-03-29T04:45:12;9.80;74.20
42755;DHT22;28407;51.830;5.684;2024-03-29T04:47:13;9.80;74.20
42755;DHT22;28407;51.830;5.684;2024-03-29T04:49:14;9.80;74.30
42755;DHT22;28407;51.830;5.684;2024-03-29T04:51:17;9.80;74.40
42755;DHT22;28407;51.830;5.684;2024-03-29T04:53:20;9.80;74.40
42755;DHT22;28407;51.830;5.684;2024-03-29T04:55:21;9.80;74.50
42755;DHT22;28407;51.830;5.684;2024-03-29T04:57:27;9.80;74.60
42755;DHT22;28407;51.830;5.684;2024-03-29T04:59:28;9.80;74.70
42755;DHT22;28407;51.830;5.684;2024-03-29T05:01:31;9.80;74.80
42755;DHT22;28407;51.830;5.684;2024-03-29T05:03:32;9.80;74.90
42755;DHT22;28407;51.830;5.684;2024-03-29T05:05:33;9.80;75.60
42755;DHT22;28407;51.830;5.684;2024-03-29T05:07:34;9.80;75.10
42755;DHT22;28407;51.830;5.684;2024-03-29T05:09:34;9.80;75.20
42755;DHT22;28407;51.830;5.684;2024-03-29T05:11:35;9.80;75.40
42755;DHT22;28407;51.830;5.684;2024-03-29T05:13:36;9.70;75.50
42755;DHT22;28407;51.830;5.684;2024-03-29T05:15:41;9.70;75.70
42755;DHT22;28407;51.830;5.684;2024-03-29T05:17:42;9.70;75.90
42755;DHT22;28407;51.830;5.684;2024-03-29T05:19:43;9.70;76.00
42755;DHT22;28407;51.830;5.684;2024-03-29T05:21:44;9.60;76.10
42755;DHT22;28407;51.830;5.684;2024-03-29T05:23:44;9.60;76.30
42755;DHT22;28407;51.830;5.684;2024-03-29T05:25:45;9.60;76.40
42755;DHT22;28407;51.830;5.684;2024-03-29T05:27:49;9.60;77.10
42755;DHT22;28407;51.830;5.684;2024-03-29T05:29:49;9.60;76.60
42755;DHT22;28407;51.830;5.684;2024-03-29T05:31:50;9.60;76.80
42755;DHT22;28407;51.830;5.684;2024-03-29T05:33:53;9.60;76.90
42755;DHT22;28407;51.830;5.684;2024-03-29T05:35:54;9.50;77.00
42755;DHT22;28407;51.830;5.684;2024-03-29T05:37:56;9.50;77.10
42755;DHT22;28407;51.830;5.684;2024-03-29T05:39:57;9.50;77.20
42755;DHT22;28407;51.830;5.684;2024-03-29T05:42:00;9.50;77.30
42755;DHT22;28407;51.830;5.684;2024-03-29T05:44:01;9.50;77.50
42755;DHT22;28407;51.830;5.684;2024-03-29T05:46:04;9.50;77.60
42755;DHT22;28407;51.830;5.684;2024-03-29T05:48:05;9.50;77.70
42755;DHT22;28407;51.830;5.684;2024-03-29T05:50:06;9.50;77.80
42755;DHT22;28407;51.830;5.684;2024-03-29T05:52:06;9.50;77.90
42755;DHT22;28407;51.830;5.684;2024-03-29T05:54:07;9.50;78.00
42755;DHT22;28407;51.830;5.684;2024-03-29T05:56:08;9.50;78.10
42755;DHT22;28407;51.830;5.684;2024-03-29T05:58:08;9.50;78.20
42755;DHT22;28407;51.830;5.684;2024-03-29T06:00:10;9.50;78.20
42755;DHT22;28407;51.830;5.684;2024-03-29T06:02:11;9.50;78.30
42755;DHT22;28407;51.830;5.684;2024-03-29T06:04:11;9.50;78.20
42755;DHT22;28407;51.830;5.684;2024-03-29T06:06:19;9.50;78.30
42755;DHT22;28407;51.830;5.684;2024-03-29T06:08:24;9.50;78.30
42755;DHT22;28407;51.830;5.684;2024-03-29T06:10:29;9.50;78.30
42755;DHT22;28407;51.830;5.684;2024-03-29T06:12:32;9.50;78.40
42755;DHT22;28407;51.830;5.684;2024-03-29T06:14:33;9.60;78.50
42755;DHT22;28407;51.830;5.684;2024-03-29T06:16:52;9.60;78.50
42755;DHT22;28407;51.830;5.684;2024-03-29T06:19:12;9.60;78.40
42755;DHT22;28407;51.830;5.684;2024-03-29T06:21:13;9.70;78.50
42755;DHT22;28407;51.830;5.684;2024-03-29T06:23:13;9.70;78.60
42755;DHT22;28407;51.830;5.684;2024-03-29T06:25:15;9.70;78.60
42755;DHT22;28407;51.830;5.684;2024-03-29T06:27:15;9.70;78.60
42755;DHT22;28407;51.830;5.684;2024-03-29T06:29:17;9.70;78.60
42755;DHT22;28407;51.830;5.684;2024-03-29T06:31:18;9.70;78.70
42755;DHT22;28407;51.830;5.684;2024-03-29T06:33:19;9.70;78.80
42755;DHT22;28407;51.830;5.684;2024-03-29T06:35:19;9.70;79.00
42755;DHT22;28407;51.830;5.684;2024-03-29T06:37:22;9.60;79.00
42755;DHT22;28407;51.830;5.684;2024-03-29T06:39:25;9.60;79.00
42755;DHT22;28407;51.830;5.684;2024-03-29T06:41:28;9.60;79.20
42755;DHT22;28407;51.830;5.684;2024-03-29T06:43:32;9.60;79.20
42755;DHT22;28407;51.830;5.684;2024-03-29T06:45:33;9.60;79.30
42755;DHT22;28407;51.830;5.684;2024-03-29T06:47:34;9.60;79.40
42755;DHT22;28407;51.830;5.684;2024-03-29T06:49:35;9.60;79.50
42755;DHT22;28407;51.830;5.684;2024-03-29T06:51:36;9.50;79.50
42755;DHT22;28407;51.830;5.684;2024-03-29T06:53:37;9.60;79.60
42755;DHT22;28407;51.830;5.684;2024-03-29T06:55:38;9.60;79.60
42755;DHT22;28407;51.830;5.684;2024-03-29T06:57:39;9.60;79.60
42755;DHT22;28407;51.830;5.684;2024-03-29T06:59:40;9.60;79.70
42755;DHT22;28407;51.830;5.684;2024-03-29T07:01:41;9.60;79.70
42755;DHT22;28407;51.830;5.684;2024-03-29T07:03:42;9.60;79.70
42755;DHT22;28407;51.830;5.684;2024-03-29T07:05:43;9.60;79.80
42755;DHT22;28407;51.830;5.684;2024-03-29T07:07:43;9.60;79.80
42755;DHT22;28407;51.830;5.684;2024-03-29T07:09:47;9.60;79.80
42755;DHT22;28407;51.830;5.684;2024-03-29T07:11:50;9.60;79.80
42755;DHT22;28407;51.830;5.684;2024-03-29T07:13:51;9.60;79.90
42755;DHT22;28407;51.830;5.684;2024-03-29T07:15:52;9.60;79.90
42755;DHT22;28407;51.830;5.684;2024-03-29T07:17:53;9.60;80.60
42755;DHT22;28407;51.830;5.684;2024-03-29T07:19:54;9.60;80.00
42755;DHT22;28407;51.830;5.684;2024-03-29T07:21:55;9.70;80.00
42755;DHT22;28407;51.830;5.684;2024-03-29T07:23:58;9.70;80.00
42755;DHT22;28407;51.830;5.684;2024-03-29T07:26:01;9.70;80.10
42755;DHT22;28407;51.830;5.684;2024-03-29T07:28:03;9.70;80.10
42755;DHT22;28407;51.830;5.684;2024-03-29T07:30:04;9.70;80.10
42755;DHT22;28407;51.830;5.684;2024-03-29T07:32:08;9.70;80.10
42755;DHT22;28407;51.830;5.684;2024-03-29T07:34:09;9.80;80.10
42755;DHT22;28407;51.830;5.684;2024-03-29T07:36:11;9.80;80.10
42755;DHT22;28407;51.830;5.684;2024-03-29T07:38:12;9.80;80.10
42755;DHT22;28407;51.830;5.684;2024-03-29T07:40:15;9.90;80.10
42755;DHT22;28407;51.830;5.684;2024-03-29T07:42:17;9.80;80.10
42755;DHT22;28407;51.830;5.684;2024-03-29T07:44:18;9.90;80.20
42755;DHT22;28407;51.830;5.684;2024-03-29T07:46:21;9.90;80.20
42755;DHT22;28407;51.830;5.684;2024-03-29T07:48:22;9.90;80.30
42755;DHT22;28407;51.830;5.684;2024-03-29T07:50:23;9.90;80.20
42755;DHT22;28407;51.830;5.684;2024-03-29T07:52:25;9.90;80.30
42755;DHT22;28407;51.830;5.684;2024-03-29T07:54:26;9.90;80.30
42755;DHT22;28407;51.830;5.684;2024-03-29T07:56:26;9.90;80.10
42755;DHT22;28407;51.830;5.684;2024-03-29T07:58:27;9.90;80.10
42755;DHT22;28407;51.830;5.684;2024-03-29T08:00:31;9.90;80.10
42755;DHT22;28407;51.830;5.684;2024-03-29T08:02:34;10.00;80.20
42755;DHT22;28407;51.830;5.684;2024-03-29T08:04:35;10.00;80.30
42755;DHT22;28407;51.830;5.684;2024-03-29T08:06:38;10.00;80.30
42755;DHT22;28407;51.830;5.684;2024-03-29T08:08:39;10.00;80.30
42755;DHT22;28407;51.830;5.684;2024-03-29T08:10:40;10.00;80.30
42755;DHT22;28407;51.830;5.684;2024-03-29T08:12:40;10.00;80.30
42755;DHT22;28407;51.830;5.684;2024-03-29T08:14:41;10.00;80.30
42755;DHT22;28407;51.830;5.684;2024-03-29T08:16:45;10.00;80.40
42755;DHT22;28407;51.830;5.684;2024-03-29T08:18:49;10.00;80.40
42755;DHT22;28407;51.830;5.684;2024-03-29T08:20:49;10.10;80.50
42755;DHT22;28407;51.830;5.684;2024-03-29T08:22:53;10.00;80.40
42755;DHT22;28407;51.830;5.684;2024-03-29T08:24:59;10.10;80.50
42755;DHT22;28407;51.830;5.684;2024-03-29T08:27:01;10.00;80.50
42755;DHT22;28407;51.830;5.684;2024-03-29T08:29:02;10.00;80.50
42755;DHT22;28407;51.830;5.684;2024-03-29T08:31:05;10.10;80.50
42755;DHT22;28407;51.830;5.684;2024-03-29T08:33:07;10.10;80.50
42755;DHT22;28407;51.830;5.684;2024-03-29T08:35:07;10.10;80.50
42755;DHT22;28407;51.830;5.684;2024-03-29T08:37:11;10.20;80.60
42755;DHT22;28407;51.830;5.684;2024-03-29T08:39:12;10.20;80.50
42755;DHT22;28407;51.830;5.684;2024-03-29T08:41:13;10.20;80.50
42755;DHT22;28407;51.830;5.684;2024-03-29T08:43:14;10.30;81.20
42755;DHT22;28407;51.830;5.684;2024-03-29T08:45:16;10.30;80.50
42755;DHT22;28407;51.830;5.684;2024-03-29T08:47:17;10.30;80.50
42755;DHT22;28407;51.830;5.684;2024-03-29T08:49:18;10.30;80.50
42755;DHT22;28407;51.830;5.684;2024-03-29T08:51:18;10.40;80.50
42755;DHT22;28407;51.830;5.684;2024-03-29T08:53:20;10.40;80.40
42755;DHT22;28407;51.830;5.684;2024-03-29T08:55:22;10.50;80.40
42755;DHT22;28407;51.830;5.684;2024-03-29T08:57:23;10.50;80.30
42755;DHT22;28407;51.830;5.684;2024-03-29T08:59:23;10.60;80.10
42755;DHT22;28407;51.830;5.684;2024-03-29T09:01:24;10.60;80.10
42755;DHT22;28407;51.830;5.684;2024-03-29T09:03:25;10.60;80.30
42755;DHT22;28407;51.830;5.684;2024-03-29T09:05:26;10.60;80.10
42755;DHT22;28407;51.830;5.684;2024-03-29T09:07:29;10.60;80.20
42755;DHT22;28407;51.830;5.684;2024-03-29T09:09:32;10.60;80.20
42755;DHT22;28407;51.830;5.684;2024-03-29T09:11:35;10.70;80.30
42755;DHT22;28407;51.830;5.684;2024-03-29T09:13:36;10.70;80.30
42755;DHT22;28407;51.830;5.684;2024-03-29T09:15:38;10.70;80.30
42755;DHT22;28407;51.830;5.684;2024-03-29T09:17:42;10.70;80.30
42755;DHT22;28407;51.830;5.684;2024-03-29T09:19:43;10.70;80.40
42755;DHT22;28407;51.830;5.684;2024-03-29T09:21:44;10.70;80.40
42755;DHT22;28407;51.830;5.684;2024-03-29T09:23:46;10.70;80.50
42755;DHT22;28407;51.830;5.684;2024-03-29T09:25:46;10.70;80.50
42755;DHT22;28407;51.830;5.684;2024-03-29T09:27:47;10.70;80.40
42755;DHT22;28407;51.830;5.684;2024-03-29T09:29:49;10.80;80.50
42755;DHT22;28407;51.830;5.684;2024-03-29T09:31:50;10.80;80.50
42755;DHT22;28407;51.830;5.684;2024-03-29T09:33:51;10.80;80.50
42755;DHT22;28407;51.830;5.684;2024-03-29T09:35:58;10.80;80.40
42755;DHT22;28407;51.830;5.684;2024-03-29T09:38:02;10.90;80.40
42755;DHT22;28407;51.830;5.684;2024-03-29T09:40:05;10.90;80.40
42755;DHT22;28407;51.830;5.684;2024-03-29T09:42:06;11.00;80.30
42755;DHT22;28407;51.830;5.684;2024-03-29T09:44:08;11.10;80.20
42755;DHT22;28407;51.830;5.684;2024-03-29T09:46:15;11.10;80.10
42755;DHT22;28407;51.830;5.684;2024-03-29T09:48:16;11.20;80.10
42755;DHT22;28407;51.830;5.684;2024-03-29T09:50:17;11.20;79.90
42755;DHT22;28407;51.830;5.684;2024-03-29T09:52:19;11.30;80.00
42755;DHT22;28407;51.830;5.684;2024-03-29T09:54:20;11.30;80.00
42755;DHT22;28407;51.830;5.684;2024-03-29T09:56:21;11.40;79.90
42755;DHT22;28407;51.830;5.684;2024-03-29T09:58:23;11.40;80.40
42755;DHT22;28407;51.830;5.684;2024-03-29T10:00:27;11.40;79.60
42755;DHT22;28407;51.830;5.684;2024-03-29T10:02:31;11.40;79.60
42755;DHT22;28407;51.830;5.684;2024-03-29T10:04:36;11.50;79.60
42755;DHT22;28407;51.830;5.684;2024-03-29T10:06:38;11.60;79.50
42755;DHT22;28407;51.830;5.684;2024-03-29T10:08:40;11.60;79.50
42755;DHT22;28407;51.830;5.684;2024-03-29T10:10:41;11.60;79.30
42755;DHT22;28407;51.830;5.684;2024-03-29T10:12:42;11.70;79.30
42755;DHT22;28407;51.830;5.684;2024-03-29T10:14:45;11.70;79.20
42755;DHT22;28407;51.830;5.684;2024-03-29T10:16:51;11.80;79.20
42755;DHT22;28407;51.830;5.684;2024-03-29T10:18:52;11.80;79.20
42755;DHT22;28407;51.830;5.684;2024-03-29T10:21:04;11.80;79.10
42755;DHT22;28407;51.830;5.684;2024-03-29T10:23:07;11.90;79.10
42755;DHT22;28407;51.830;5.684;2024-03-29T10:25:09;11.90;79.10
42755;DHT22;28407;51.830;5.684;2024-03-29T10:27:10;11.90;79.00
42755;DHT22;28407;51.830;5.684;2024-03-29T10:29:10;11.90;79.00
42755;DHT22;28407;51.830;5.684;2024-03-29T10:31:11;11.90;79.00
42755;DHT22;28407;51.830;5.684;2024-03-29T10:33:14;12.00;79.00
42755;DHT22;28407;51.830;5.684;2024-03-29T10:35:16;12.00;79.00
42755;DHT22;28407;51.830;5.684;2024-03-29T10:37:19;12.10;78.90
42755;DHT22;28407;51.830;5.684;2024-03-29T10:39:29;12.10;78.90
42755;DHT22;28407;51.830;5.684;2024-03-29T10:41:31;12.20;78.80
42755;DHT22;28407;51.830;5.684;2024-03-29T10:43:35;12.20;78.70
42755;DHT22;28407;51.830;5.684;2024-03-29T10:45:36;12.20;78.70
42755;DHT22;28407;51.830;5.684;2024-03-29T10:47:38;12.20;78.70
42755;DHT22;28407;51.830;5.684;2024-03-29T10:49:45;12.30;78.70
42755;DHT22;28407;51.830;5.684;2024-03-29T10:51:50;12.30;78.60
42755;DHT22;28407;51.830;5.684;2024-03-29T10:53:52;12.40;78.50
42755;DHT22;28407;51.830;5.684;2024-03-29T10:55:58;12.40;78.30
42755;DHT22;28407;51.830;5.684;2024-03-29T10:58:00;12.50;78.30
42755;DHT22;28407;51.830;5.684;2024-03-29T11:00:13;12.50;78.20
42755;DHT22;28407;51.830;5.684;2024-03-29T11:04:43;12.60;78.00
42755;DHT22;28407;51.830;5.684;2024-03-29T11:06:47;12.70;77.90
42755;DHT22;28407;51.830;5.684;2024-03-29T11:08:52;12.70;77.80
42755;DHT22;28407;51.830;5.684;2024-03-29T11:10:57;12.80;77.80
42755;DHT22;28407;51.830;5.684;2024-03-29T11:13:06;12.80;78.30
42755;DHT22;28407;51.830;5.684;2024-03-29T11:15:26;12.90;77.60
42755;DHT22;28407;51.830;5.684;2024-03-29T11:17:33;13.00;77.50
42755;DHT22;28407;51.830;5.684;2024-03-29T11:19:35;13.10;77.30
42755;DHT22;28407;51.830;5.684;2024-03-29T11:21:36;13.20;77.20
42755;DHT22;28407;51.830;5.684;2024-03-29T11:23:37;13.20;77.10
42755;DHT22;28407;51.830;5.684;2024-03-29T11:25:39;13.30;77.00
42755;DHT22;28407;51.830;5.684;2024-03-29T11:27:40;13.40;76.90
42755;DHT22;28407;51.830;5.684;2024-03-29T11:29:44;13.50;76.60
42755;DHT22;28407;51.830;5.684;2024-03-29T11:31:46;13.60;76.40
42755;DHT22;28407;51.830;5.684;2024-03-29T11:33:50;13.60;76.20
42755;DHT22;28407;51.830;5.684;2024-03-29T11:35:52;13.70;76.10
42755;DHT22;28407;51.830;5.684;2024-03-29T11:37:59;13.70;75.80
42755;DHT22;28407;51.830;5.684;2024-03-29T11:40:00;13.70;75.80
42755;DHT22;28407;51.830;5.684;2024-03-29T11:42:02;13.70;75.70
42755;DHT22;28407;51.830;5.684;2024-03-29T11:44:02;13.70;75.70
42755;DHT22;28407;51.830;5.684;2024-03-29T11:46:08;13.70;75.50
42755;DHT22;28407;51.830;5.684;2024-03-29T11:48:11;13.70;75.40
42755;DHT22;28407;51.830;5.684;2024-03-29T11:50:13;13.80;75.40
42755;DHT22;28407;51.830;5.684;2024-03-29T11:52:18;13.80;75.40
42755;DHT22;28407;51.830;5.684;2024-03-29T11:54:18;13.90;75.20
42755;DHT22;28407;51.830;5.684;2024-03-29T11:56:19;13.90;75.10
42755;DHT22;28407;51.830;5.684;2024-03-29T11:58:24;14.00;75.00
42755;DHT22;28407;51.830;5.684;2024-03-29T12:00:25;14.10;74.90
42755;DHT22;28407;51.830;5.684;2024-03-29T12:02:30;14.10;74.50
42755;DHT22;28407;51.830;5.684;2024-03-29T12:04:32;14.20;74.40
42755;DHT22;28407;51.830;5.684;2024-03-29T12:06:33;14.20;74.30
42755;DHT22;28407;51.830;5.684;2024-03-29T12:08:38;14.30;74.20
42755;DHT22;28407;51.830;5.684;2024-03-29T12:10:39;14.30;74.00
42755;DHT22;28407;51.830;5.684;2024-03-29T12:12:43;14.40;73.80
42755;DHT22;28407;51.830;5.684;2024-03-29T12:14:45;14.50;73.60
42755;DHT22;28407;51.830;5.684;2024-03-29T12:16:46;14.60;73.50
42755;DHT22;28407;51.830;5.684;2024-03-29T12:18:47;14.60;73.40
42755;DHT22;28407;51.830;5.684;2024-03-29T12:20:50;14.70;73.40
42755;DHT22;28407;51.830;5.684;2024-03-29T12:22:51;14.70;73.10
42755;DHT22;28407;51.830;5.684;2024-03-29T12:24:52;14.80;72.90
42755;DHT22;28407;51.830;5.684;2024-03-29T12:26:53;14.90;72.70
42755;DHT22;28407;51.830;5.684;2024-03-29T12:28:54;15.00;72.40
42755;DHT22;28407;51.830;5.684;2024-03-29T12:30:56;15.00;72.20
42755;DHT22;28407;51.830;5.684;2024-03-29T12:33:17;15.10;72.00
42755;DHT22;28407;51.830;5.684;2024-03-29T12:35:22;15.10;71.60
42755;DHT22;28407;51.830;5.684;2024-03-29T12:37:22;15.30;71.40
42755;DHT22;28407;51.830;5.684;2024-03-29T12:39:26;15.30;71.00
42755;DHT22;28407;51.830;5.684;2024-03-29T12:41:36;15.40;70.90
42755;DHT22;28407;51.830;5.684;2024-03-29T12:43:37;15.50;70.70
42755;DHT22;28407;51.830;5.684;2024-03-29T12:45:40;15.50;70.70
42755;DHT22;28407;51.830;5.684;2024-03-29T12:47:42;15.50;70.70
42755;DHT22;28407;51.830;5.684;2024-03-29T12:49:43;15.50;70.70
42755;DHT22;28407;51.830;5.684;2024-03-29T12:51:44;15.50;70.60
42755;DHT22;28407;51.830;5.684;2024-03-29T12:53:45;15.60;70.60
42755;DHT22;28407;51.830;5.684;2024-03-29T12:55:47;15.60;70.40
42755;DHT22;28407;51.830;5.684;2024-03-29T12:57:48;15.70;70.40
42755;DHT22;28407;51.830;5.684;2024-03-29T12:59:49;15.60;70.20